createdAt,value
2018-09-01T00:01:22.279Z,6.80
2018-09-01T00:06:26.768Z,9.03
2018-09-01T00:11:31.279Z,7.27
2018-09-01T00:16:35.612Z,8.40
2018-09-01T00:21:39.952Z,9.60
2018-09-01T00:26:44.307Z,5.60
2018-09-01T00:31:48.669Z,5.60
2018-09-01T00:36:53.085Z,9.10
2018-09-01T00:41:57.447Z,6.27
2018-09-01T00:47:02.026Z,5.20
2018-09-01T00:52:06.508Z,6.83
2018-09-01T00:57:10.952Z,7.73
2018-09-01T01:02:15.390Z,8.70
2018-09-01T01:07:19.761Z,7.43
2018-09-01T01:12:24.182Z,5.77
2018-09-01T01:17:28.612Z,6.90
2018-09-01T01:22:33.122Z,9.73
2018-09-01T01:27:38.379Z,8.40
2018-09-01T01:32:42.764Z,7.40
2018-09-01T01:37:47.195Z,7.97
2018-09-01T01:42:51.631Z,6.83
2018-09-01T01:47:55.927Z,7.63
2018-09-01T01:53:00.566Z,5.67
2018-09-01T01:58:05.175Z,7.07
2018-09-01T02:03:09.545Z,5.73
2018-09-01T02:08:13.960Z,7.87
2018-09-01T02:13:18.314Z,8.23
2018-09-01T02:18:22.684Z,4.43
2018-09-01T02:23:27.775Z,6.67
2018-09-01T02:28:32.161Z,8.80
2018-09-01T02:33:36.550Z,5.57
2018-09-01T02:38:40.944Z,9.20
2018-09-01T02:43:45.271Z,6.77
2018-09-01T02:48:49.608Z,5.50
2018-09-01T02:53:53.953Z,11.60
2018-09-01T02:58:58.310Z,11.60
2018-09-01T03:04:02.711Z,8.10
2018-09-01T03:09:08.392Z,8.70
2018-09-01T03:14:12.652Z,7.27
2018-09-01T03:19:16.922Z,8.23
2018-09-01T03:24:21.250Z,11.17
2018-09-01T03:29:25.775Z,8.97
2018-09-01T03:34:30.198Z,7.77
2018-09-01T03:39:34.651Z,6.73
2018-09-01T03:44:39.087Z,11.10
2018-09-01T03:49:43.517Z,10.90
2018-09-01T03:54:47.876Z,7.10
2018-09-01T03:59:52.210Z,10.67
2018-09-01T04:04:56.566Z,9.43
2018-09-01T04:10:00.955Z,10.07
2018-09-01T04:15:05.644Z,9.73
2018-09-01T04:20:10.110Z,12.10
2018-09-01T04:25:14.435Z,18.03
2018-09-01T04:30:18.860Z,10.80
2018-09-01T04:35:23.256Z,11.43
2018-09-01T04:40:27.664Z,13.33
2018-09-01T04:45:32.185Z,12.70
2018-09-01T04:50:36.564Z,9.60
2018-09-01T04:55:40.948Z,11.17
2018-09-01T05:00:46.519Z,10.03
2018-09-01T05:05:51.144Z,12.67
2018-09-01T05:10:56.187Z,9.80
2018-09-01T05:16:00.685Z,11.23
2018-09-01T05:21:04.993Z,10.83
2018-09-01T05:26:10.114Z,12.13
2018-09-01T05:31:14.452Z,11.07
2018-09-01T05:36:18.896Z,12.20
2018-09-01T05:41:23.225Z,11.33
2018-09-01T05:46:27.568Z,9.67
2018-09-01T05:51:32.469Z,12.83
2018-09-01T05:56:36.875Z,9.77
2018-09-01T06:01:41.938Z,11.17
2018-09-01T06:06:46.402Z,19.00
2018-09-01T06:11:50.805Z,11.37
2018-09-01T06:16:55.250Z,11.40
2018-09-01T06:21:59.782Z,12.27
2018-09-01T06:27:11.801Z,14.00
2018-09-01T06:32:16.381Z,11.70
2018-09-01T06:37:20.722Z,11.07
2018-09-01T06:42:25.216Z,9.37
2018-09-01T06:47:29.657Z,13.30
2018-09-01T06:52:34.107Z,8.57
2018-09-01T06:57:39.188Z,11.60
2018-09-01T07:02:43.663Z,8.40
2018-09-01T07:07:48.257Z,21.13
2018-09-01T07:12:52.663Z,8.83
2018-09-01T07:17:57.164Z,7.83
2018-09-01T07:23:01.610Z,13.63
2018-09-01T07:28:06.096Z,8.43
2018-09-01T07:33:10.434Z,10.87
2018-09-01T07:38:15.406Z,9.43
2018-09-01T07:43:19.883Z,8.67
2018-09-01T07:48:24.323Z,11.37
2018-09-01T07:53:28.738Z,9.80
2018-09-01T07:58:33.123Z,11.10
2018-09-01T08:03:39.171Z,7.80
2018-09-01T08:08:43.532Z,10.20
2018-09-01T08:13:48.817Z,8.20
2018-09-01T08:18:53.159Z,7.33
2018-09-01T08:23:58.404Z,10.97
2018-09-01T08:29:02.810Z,8.67
2018-09-01T08:34:07.233Z,8.43
2018-09-01T08:39:12.067Z,6.10
2018-09-01T08:44:16.567Z,9.00
2018-09-01T08:49:21.068Z,9.20
2018-09-01T08:54:26.976Z,7.50
2018-09-01T08:59:31.514Z,7.83
2018-09-01T09:04:37.160Z,7.93
2018-09-01T09:09:41.938Z,5.93
2018-09-01T09:14:46.389Z,5.97
2018-09-01T09:19:50.850Z,9.90
2018-09-01T09:24:55.760Z,6.93
2018-09-01T09:30:00.249Z,5.50
2018-09-01T09:35:04.842Z,5.70
2018-09-01T09:40:09.273Z,5.37
2018-09-01T09:45:13.687Z,6.00
2018-09-01T09:50:18.540Z,7.63
2018-09-01T09:55:24.547Z,3.73
2018-09-01T10:00:34.456Z,3.80
2018-09-01T10:05:38.837Z,5.57
2018-09-01T10:10:43.239Z,3.57
2018-09-01T10:15:47.735Z,4.80
2018-09-01T10:20:52.242Z,6.63
2018-09-01T10:25:56.790Z,7.07
2018-09-01T10:31:01.115Z,4.33
2018-09-01T10:36:05.763Z,3.57
2018-09-01T10:41:10.138Z,2.80
2018-09-01T10:46:14.627Z,5.60
2018-09-01T10:51:18.908Z,4.27
2018-09-01T10:56:23.307Z,3.33
2018-09-01T11:01:27.594Z,2.37
2018-09-01T11:06:32.100Z,3.77
2018-09-01T11:11:36.544Z,3.57
2018-09-01T11:16:40.995Z,3.90
2018-09-01T11:21:45.927Z,3.53
2018-09-01T11:26:50.292Z,3.17
2018-09-01T11:31:54.726Z,3.43
2018-09-01T11:36:59.106Z,5.13
2018-09-01T11:42:03.616Z,3.33
2018-09-01T11:47:08.068Z,4.20
2018-09-01T11:52:12.541Z,2.33
2018-09-01T11:57:16.954Z,2.87
2018-09-01T12:02:21.350Z,1.93
2018-09-01T12:07:25.735Z,3.50
2018-09-01T12:12:30.077Z,1.97
2018-09-01T12:17:34.399Z,2.03
2018-09-01T12:22:38.806Z,5.33
2018-09-01T12:27:43.139Z,2.43
2018-09-01T12:32:47.650Z,3.30
2018-09-01T12:37:52.004Z,3.67
2018-09-01T12:42:56.525Z,4.50
2018-09-01T12:48:00.954Z,4.47
2018-09-01T12:53:05.434Z,3.47
2018-09-01T12:58:09.836Z,6.30
2018-09-01T13:03:14.273Z,2.90
2018-09-01T13:08:18.586Z,2.67
2018-09-01T13:13:23.618Z,3.73
2018-09-01T13:18:28.056Z,4.07
2018-09-01T13:23:33.027Z,5.17
2018-09-01T13:28:37.636Z,2.10
2018-09-01T13:33:42.066Z,3.40
2018-09-01T13:38:46.521Z,2.53
2018-09-01T13:43:50.940Z,4.80
2018-09-01T13:48:55.833Z,1.90
2018-09-01T13:54:00.242Z,3.17
2018-09-01T13:59:04.606Z,3.13
2018-09-01T14:04:08.925Z,3.13
2018-09-01T14:09:13.269Z,1.93
2018-09-01T14:14:17.640Z,1.80
2018-09-01T14:19:22.264Z,3.53
2018-09-01T14:24:26.709Z,4.10
2018-09-01T14:29:31.153Z,2.80
2018-09-01T14:34:35.603Z,3.10
2018-09-01T14:39:40.035Z,2.37
2018-09-01T14:44:44.392Z,3.40
2018-09-01T14:49:48.712Z,6.10
2018-09-01T14:54:53.045Z,3.40
2018-09-01T14:59:57.575Z,2.37
2018-09-01T15:05:01.862Z,2.63
2018-09-01T15:10:06.644Z,3.57
2018-09-01T15:15:11.120Z,2.77
2018-09-01T15:20:15.660Z,2.80
2018-09-01T15:25:20.048Z,4.03
2018-09-01T15:30:25.165Z,2.80
2018-09-01T15:35:29.713Z,3.17
2018-09-01T15:40:34.099Z,3.27
2018-09-01T15:45:38.479Z,3.23
2018-09-01T15:50:42.923Z,3.50
2018-09-01T15:55:47.241Z,2.83
2018-09-01T16:00:52.127Z,5.07
2018-09-01T16:05:56.572Z,3.97
2018-09-01T16:11:00.912Z,5.73
2018-09-01T16:16:05.278Z,4.07
2018-09-01T16:21:09.628Z,5.50
2018-09-01T16:26:14.238Z,5.63
2018-09-01T16:31:18.729Z,2.90
2018-09-01T16:36:23.232Z,3.63
2018-09-01T16:41:27.678Z,4.07
2018-09-01T16:46:32.002Z,8.90
2018-09-01T16:51:36.566Z,3.10
2018-09-01T16:56:40.991Z,4.40
2018-09-01T17:01:45.436Z,4.57
2018-09-01T17:06:49.887Z,2.47
2018-09-01T17:11:54.370Z,3.20
2018-09-01T17:16:58.795Z,3.67
2018-09-01T17:22:03.222Z,2.93
2018-09-01T17:27:07.561Z,3.20
2018-09-01T17:32:11.924Z,5.17
2018-09-01T17:37:16.440Z,4.83
2018-09-01T17:42:20.978Z,6.80
2018-09-01T17:47:25.424Z,5.07
2018-09-01T17:52:29.765Z,4.47
2018-09-01T17:57:34.189Z,2.03
2018-09-01T18:02:38.563Z,4.37
2018-09-01T18:07:42.886Z,5.47
2018-09-01T18:12:48.976Z,7.87
2018-09-01T18:17:53.510Z,4.20
2018-09-01T18:22:57.942Z,3.23
2018-09-01T18:28:02.393Z,3.57
2018-09-01T18:33:06.844Z,4.90
2018-09-01T18:38:11.184Z,4.40
2018-09-01T18:43:16.184Z,3.67
2018-09-01T18:48:20.683Z,4.80
2018-09-01T18:53:25.231Z,3.60
2018-09-01T18:58:29.668Z,7.07
2018-09-01T19:03:34.117Z,4.80
2018-09-01T19:08:38.447Z,4.30
2018-09-01T19:13:42.864Z,5.03
2018-09-01T19:18:47.232Z,5.73
2018-09-01T19:23:51.638Z,6.37
2018-09-01T19:28:56.129Z,8.47
2018-09-01T19:34:00.550Z,5.70
2018-09-01T19:39:06.767Z,6.57
2018-09-01T19:44:11.115Z,4.07
2018-09-01T19:49:15.537Z,6.93
2018-09-01T19:54:19.874Z,3.67
2018-09-01T19:59:24.395Z,4.73
2018-09-01T20:04:28.848Z,3.13
2018-09-01T20:09:33.292Z,3.90
2018-09-01T20:14:37.796Z,8.53
2018-09-01T20:19:42.174Z,4.60
2018-09-01T20:24:46.499Z,6.93
2018-09-01T20:29:50.891Z,4.73
2018-09-01T20:34:59.297Z,5.50
2018-09-01T20:40:03.651Z,5.00
2018-09-01T20:45:08.097Z,5.77
2018-09-01T20:50:12.442Z,5.27
2018-09-01T20:55:16.755Z,5.90
2018-09-01T21:00:21.180Z,5.23
2018-09-01T21:05:26.176Z,6.07
2018-09-01T21:10:30.516Z,6.40
2018-09-01T21:15:34.835Z,7.20
2018-09-01T21:20:39.195Z,8.77
2018-09-01T21:25:43.522Z,7.37
2018-09-01T21:30:48.063Z,6.00
2018-09-01T21:35:52.403Z,7.77
2018-09-01T21:40:56.667Z,5.53
2018-09-01T21:46:01.336Z,7.43
2018-09-01T21:51:05.939Z,7.83
2018-09-01T21:56:10.388Z,13.70
2018-09-01T22:01:19.840Z,9.40
2018-09-01T22:06:24.909Z,6.73
2018-09-01T22:11:29.339Z,14.03
2018-09-01T22:16:33.700Z,5.83
2018-09-01T22:21:38.027Z,8.47
2018-09-01T22:26:42.410Z,7.53
2018-09-01T22:31:46.870Z,7.43
2018-09-01T22:36:51.389Z,7.93
2018-09-01T22:41:55.924Z,5.73
2018-09-01T22:47:01.944Z,7.50
2018-09-01T22:52:06.395Z,6.67
2018-09-01T22:57:10.752Z,6.77
2018-09-01T23:02:16.179Z,8.30
2018-09-01T23:07:20.563Z,5.80
2018-09-01T23:12:24.813Z,8.10
2018-09-01T23:17:29.783Z,10.73
2018-09-01T23:22:34.124Z,7.43
2018-09-01T23:27:38.471Z,8.30
2018-09-01T23:32:42.795Z,8.07
2018-09-01T23:37:47.137Z,11.13
2018-09-01T23:42:51.572Z,7.27
2018-09-01T23:47:56.059Z,8.83
2018-09-01T23:53:00.551Z,7.67
2018-09-01T23:58:04.996Z,8.90
